Time;durP1;ratioP1;P1;durP2;ratioP2;P2;SDS_P1;SDS_P2;PMS_P1;PMS_P2;Temp;Humidity;BMP_temperature;BMP_pressure;BME280_temperature;BME280_humidity;BME280_pressure;Samples;Min_cycle;Max_cycle;Signal;HPM_P1;HPM_P2
2023/05/25 00:00:59;;;;;;;8.82;3.97;;;;;;;9.54;98.83;94103.72;5048394;28;20102;-63
2023/05/25 00:03:30;;;;;;;12.23;4.45;;;;;;;9.55;96.93;94097.06;5047745;28;20037;-61
2023/05/25 00:06:00;;;;;;;8.67;4.50;;;;;;;9.60;96.52;94104.09;5048161;28;20049;-59
2023/05/25 00:08:28;;;;;;;7.63;3.97;;;;;;;9.60;95.83;94106.81;5047509;28;20070;-60
2023/05/25 00:10:55;;;;;;;10.30;4.18;;;;;;;9.66;94.96;94099.72;5047890;28;20049;-62
2023/05/25 00:13:22;;;;;;;10.68;4.20;;;;;;;9.60;94.57;94107.59;5066763;28;20036;-60
2023/05/25 00:15:49;;;;;;;9.45;4.13;;;;;;;9.71;94.50;94093.78;5061689;28;20032;-58
2023/05/25 00:18:17;;;;;;;38.43;20.47;;;;;;;9.68;94.57;94091.06;5068431;28;20049;-59
2023/05/25 00:20:44;;;;;;;12.15;6.15;;;;;;;9.65;92.65;94089.16;5051993;28;20037;-59
2023/05/25 00:23:11;;;;;;;9.25;4.15;;;;;;;9.61;91.90;94097.41;5064220;28;20040;-58
2023/05/25 00:25:38;;;;;;;9.85;3.85;;;;;;;9.70;92.39;94094.19;5051810;28;20045;-62
2023/05/25 00:28:05;;;;;;;9.32;3.92;;;;;;;9.78;91.20;94092.97;5051912;28;20057;-60
2023/05/25 00:30:31;;;;;;;10.10;4.37;;;;;;;9.53;92.35;94087.69;5050870;28;20712;-62
2023/05/25 00:33:00;;;;;;;10.13;4.18;;;;;;;9.76;91.46;94079.66;5065117;28;20047;-59
2023/05/25 00:35:27;;;;;;;10.80;4.43;;;;;;;9.76;91.28;94085.16;5051321;28;20047;-59
2023/05/25 00:37:54;;;;;;;10.05;3.97;;;;;;;9.70;90.48;94084.03;5054358;28;20326;-58
2023/05/25 00:40:21;;;;;;;11.75;4.30;;;;;;;9.74;90.04;94082.03;5060724;28;20041;-60
2023/05/25 00:42:48;;;;;;;8.30;3.97;;;;;;;9.66;89.45;94082.47;5032647;28;20040;-62
2023/05/25 00:45:14;;;;;;;24.83;12.90;;;;;;;9.82;88.97;94077.25;5059577;28;20038;-60
2023/05/25 00:47:43;;;;;;;10.25;4.50;;;;;;;9.71;90.11;94080.09;5079068;28;20036;-58
2023/05/25 00:50:13;;;;;;;10.43;3.92;;;;;;;9.65;89.15;94075.47;5050755;28;20424;-58
2023/05/25 00:52:40;;;;;;;11.35;3.97;;;;;;;9.56;88.22;94076.72;5064363;28;20043;-59
2023/05/25 00:55:10;;;;;;;9.83;4.13;;;;;;;9.63;88.27;94075.84;5052734;28;20041;-60
2023/05/25 00:57:40;;;;;;;9.50;3.70;;;;;;;9.52;87.76;94073.22;5066900;28;20032;-59
2023/05/25 01:00:10;;;;;;;9.80;3.92;;;;;;;9.48;87.63;94075.22;5056179;28;20523;-57
2023/05/25 01:02:40;;;;;;;9.80;3.88;;;;;;;9.48;87.00;94074.44;5050888;28;20382;-60
2023/05/25 01:05:09;;;;;;;9.38;4.10;;;;;;;9.33;86.46;94087.47;5050588;28;20117;-60
2023/05/25 01:07:38;;;;;;;8.93;3.60;;;;;;;9.40;86.44;94090.16;5043040;28;20036;-58
2023/05/25 01:10:05;;;;;;;10.70;3.97;;;;;;;9.36;87.04;94081.19;5068520;28;20037;-58
2023/05/25 01:12:44;;;;;;;10.45;3.90;;;;;;;9.47;86.72;94076.38;5049926;28;20757;-59
2023/05/25 01:15:11;;;;;;;7.72;3.83;;;;;;;9.47;86.88;94076.38;5059439;28;20041;-58
2023/05/25 01:17:38;;;;;;;7.80;3.75;;;;;;;9.44;86.99;94071.72;5050816;28;20073;-62
2023/05/25 01:20:08;;;;;;;11.43;4.13;;;;;;;9.46;86.82;94071.34;5051245;28;20041;-60
2023/05/25 01:22:46;;;;;;;8.82;4.00;;;;;;;9.50;87.30;94077.56;5063188;28;20773;-58
2023/05/25 01:25:24;;;;;;;9.45;3.83;;;;;;;9.38;87.77;94067.88;5050556;28;20465;-58
2023/05/25 01:27:57;;;;;;;8.63;3.67;;;;;;;9.39;87.48;94072.94;5050661;28;20036;-63
2023/05/25 01:30:26;;;;;;;8.10;4.05;;;;;;;9.45;87.54;94065.06;5050357;28;20033;-61
2023/05/25 01:32:54;;;;;;;13.40;3.80;;;;;;;9.47;88.02;94067.41;5050428;28;20048;-61
2023/05/25 01:35:22;;;;;;;10.43;3.88;;;;;;;9.49;88.33;94065.81;5050154;28;20102;-59
2023/05/25 01:37:51;;;;;;;10.20;4.10;;;;;;;9.43;88.12;94061.94;5050550;28;20063;-60
2023/05/25 01:40:17;;;;;;;9.18;3.60;;;;;;;9.49;88.71;94063.06;5032262;28;20045;-59
2023/05/25 01:42:44;;;;;;;10.68;4.40;;;;;;;9.34;88.78;94067.91;5050293;28;20401;-59
2023/05/25 01:45:13;;;;;;;11.17;4.00;;;;;;;9.38;90.38;94071.38;5049944;28;20436;-58
2023/05/25 01:47:48;;;;;;;11.00;4.05;;;;;;;9.42;94.29;94063.13;5069390;28;20049;-59
2023/05/25 01:50:25;;;;;;;9.77;3.80;;;;;;;9.33;92.82;94068.28;5049777;28;20045;-59
2023/05/25 01:53:01;;;;;;;11.70;4.40;;;;;;;9.28;93.03;94068.75;5063230;28;20033;-60
2023/05/25 01:55:31;;;;;;;8.30;3.70;;;;;;;9.35;90.97;94053.00;5055359;28;20063;-59
2023/05/25 01:57:59;;;;;;;10.20;4.17;;;;;;;9.30;90.45;94071.84;5069945;28;20046;-62
2023/05/25 02:00:32;;;;;;;9.60;3.92;;;;;;;9.44;89.80;94070.94;5053927;28;20466;-59
2023/05/25 02:03:00;;;;;;;9.75;4.25;;;;;;;9.28;87.74;94066.78;5062942;28;20044;-58
2023/05/25 02:05:27;;;;;;;9.20;3.92;;;;;;;9.37;88.69;94069.81;5048695;28;20037;-58
2023/05/25 02:07:54;;;;;;;9.20;3.63;;;;;;;9.47;87.92;94076.38;5049353;28;20045;-62
2023/05/25 02:10:20;;;;;;;9.43;3.77;;;;;;;9.51;88.94;94068.91;5031735;28;20513;-59
2023/05/25 02:12:47;;;;;;;8.85;4.05;;;;;;;9.45;88.62;94072.50;5061456;28;20037;-59
2023/05/25 02:15:14;;;;;;;10.80;3.88;;;;;;;9.52;88.79;94070.47;5063092;28;20053;-61
2023/05/25 02:17:42;;;;;;;9.05;3.90;;;;;;;9.54;89.25;94064.59;5066441;28;20377;-58
2023/05/25 02:20:10;;;;;;;11.73;4.22;;;;;;;9.59;89.40;94053.19;5068901;28;20036;-58
2023/05/25 02:22:37;;;;;;;10.10;3.90;;;;;;;9.44;89.27;94058.03;5065736;28;20056;-58
2023/05/25 02:25:04;;;;;;;7.78;3.60;;;;;;;9.47;90.64;94057.22;5049201;28;20049;-61
2023/05/25 02:27:31;;;;;;;10.15;4.00;;;;;;;9.47;89.60;94056.44;5047991;28;20389;-59
2023/05/25 02:29:58;;;;;;;9.85;3.90;;;;;;;9.47;90.63;94056.44;5050309;28;20029;-61
2023/05/25 02:32:24;;;;;;;10.25;3.95;;;;;;;9.43;90.56;94051.00;5036309;28;20041;-61
2023/05/25 02:34:51;;;;;;;12.73;4.23;;;;;;;9.15;91.35;94062.94;5043345;28;20055;-58
2023/05/25 02:37:17;;;;;;;9.70;3.90;;;;;;;9.24;90.92;94057.81;5057063;28;20040;-58
2023/05/25 02:39:44;;;;;;;8.52;4.03;;;;;;;9.36;91.35;94051.84;5035806;28;20047;-59
2023/05/25 02:42:11;;;;;;;8.93;4.05;;;;;;;9.29;91.63;94054.63;5059044;28;20039;-63
2023/05/25 02:44:38;;;;;;;11.02;4.20;;;;;;;9.38;91.50;94049.47;5033928;28;20041;-60
2023/05/25 02:47:05;;;;;;;10.10;4.23;;;;;;;9.36;91.11;94053.81;5049173;28;20041;-58
2023/05/25 02:49:33;;;;;;;11.63;5.03;;;;;;;9.38;92.04;94049.47;5039426;28;20690;-58
2023/05/25 02:51:59;;;;;;;10.32;4.40;;;;;;;9.38;92.47;94051.44;5048520;28;20036;-59
2023/05/25 02:54:26;;;;;;;10.20;4.22;;;;;;;9.26;92.31;94055.44;5057212;28;20053;-62
2023/05/25 02:56:53;;;;;;;8.70;4.00;;;;;;;9.27;92.66;94058.94;5041226;28;20040;-59
2023/05/25 02:59:20;;;;;;;11.23;3.93;;;;;;;9.35;93.35;94060.44;5022200;28;20048;-63
2023/05/25 03:01:47;;;;;;;12.35;4.32;;;;;;;9.33;93.13;94060.84;5034289;28;20045;-58
2023/05/25 03:04:13;;;;;;;8.63;4.20;;;;;;;9.24;95.42;94062.50;5051869;28;20045;-59
2023/05/25 03:06:40;;;;;;;9.88;3.90;;;;;;;9.25;95.05;94062.09;5055058;28;20413;-62
2023/05/25 03:09:08;;;;;;;9.77;3.97;;;;;;;9.21;96.53;94061.34;5047701;28;20047;-60
2023/05/25 03:11:35;;;;;;;9.77;4.17;;;;;;;9.26;96.67;94051.94;5039942;28;20048;-59
2023/05/25 03:14:01;;;;;;;11.18;4.57;;;;;;;9.21;97.90;94064.06;5058440;28;20047;-62
2023/05/25 03:16:28;;;;;;;9.73;4.10;;;;;;;9.21;98.86;94069.56;5035805;28;20047;-58
2023/05/25 03:18:55;;;;;;;13.05;4.63;;;;;;;9.24;99.15;94065.25;5041502;28;20155;-58
2023/05/25 03:21:22;;;;;;;11.90;4.93;;;;;;;9.16;100.00;94068.03;5043821;28;20095;-65
2023/05/25 03:23:49;;;;;;;13.53;4.77;;;;;;;9.02;100.00;94065.41;5042359;28;20045;-59
2023/05/25 03:26:16;;;;;;;12.07;5.30;;;;;;;9.03;100.00;94064.19;5055889;28;20396;-59
2023/05/25 03:28:43;;;;;;;11.07;4.85;;;;;;;9.13;100.00;94071.56;5052736;28;20154;-60
2023/05/25 03:31:11;;;;;;;13.85;5.57;;;;;;;8.96;100.00;94067.00;5054165;28;20036;-58
2023/05/25 03:33:37;;;;;;;11.23;5.20;;;;;;;9.03;100.00;94050.50;5037742;28;20044;-59
2023/05/25 03:36:08;;;;;;;11.10;5.07;;;;;;;9.00;100.00;94063.06;5047965;28;20037;-58
2023/05/25 03:38:38;;;;;;;16.90;5.57;;;;;;;8.99;100.00;94058.78;5055827;28;20723;-58
2023/05/25 03:41:05;;;;;;;12.00;5.18;;;;;;;8.96;100.00;94072.47;5036138;28;20033;-62
2023/05/25 03:43:31;;;;;;;13.35;5.43;;;;;;;8.91;100.00;94073.66;5040288;28;20608;-58
2023/05/25 03:45:58;;;;;;;10.65;5.57;;;;;;;8.97;100.00;94057.59;5028772;28;20091;-59
2023/05/25 03:48:25;;;;;;;11.77;5.50;;;;;;;9.01;100.00;94063.81;5032259;28;20050;-62
2023/05/25 03:50:52;;;;;;;12.95;5.47;;;;;;;9.10;100.00;94064.16;5032974;28;20037;-60
2023/05/25 03:53:19;;;;;;;10.93;5.32;;;;;;;8.99;100.00;94060.72;5025476;28;20041;-59
2023/05/25 03:55:46;;;;;;;14.70;5.78;;;;;;;8.94;100.00;94075.63;5051426;28;20045;-58
2023/05/25 03:58:14;;;;;;;14.52;5.47;;;;;;;9.04;100.00;94073.22;5052000;28;20048;-59
2023/05/25 04:00:41;;;;;;;11.37;5.60;;;;;;;9.04;100.00;94070.47;5047676;28;20045;-59
2023/05/25 04:03:09;;;;;;;12.52;6.43;;;;;;;8.88;100.00;94066.28;5040008;28;20428;-59
2023/05/25 04:05:37;;;;;;;11.70;5.20;;;;;;;8.98;100.00;94054.47;5053512;28;20604;-60
2023/05/25 04:08:05;;;;;;;13.10;5.40;;;;;;;9.02;100.00;94070.88;5063504;28;20110;-59
2023/05/25 04:10:32;;;;;;;13.25;5.78;;;;;;;9.11;100.00;94076.66;5033741;28;20712;-60
2023/05/25 04:13:00;;;;;;;13.67;5.90;;;;;;;9.16;100.00;94081.72;5039068;28;20393;-59
2023/05/25 04:15:27;;;;;;;14.95;6.00;;;;;;;9.17;100.00;94082.50;5050474;28;20043;-60
2023/05/25 04:17:54;;;;;;;13.15;5.85;;;;;;;9.28;100.00;94088.69;5044989;28;20052;-59
2023/05/25 04:20:21;;;;;;;11.68;5.32;;;;;;;9.25;100.00;94099.66;5046318;28;20051;-59
2023/05/25 04:22:48;;;;;;;13.93;6.10;;;;;;;9.37;100.00;94104.66;5027767;28;20048;-59
2023/05/25 04:25:15;;;;;;;11.83;5.60;;;;;;;9.42;100.00;94098.75;5052120;28;20041;-59
2023/05/25 04:27:45;;;;;;;13.02;5.60;;;;;;;9.59;100.00;94099.78;5054808;28;20070;-59
2023/05/25 04:30:12;;;;;;;13.60;6.25;;;;;;;9.54;100.00;94089.25;5039062;28;20049;-59
2023/05/25 04:32:39;;;;;;;13.90;6.10;;;;;;;9.50;100.00;94092.03;5044405;28;20393;-62
2023/05/25 04:35:07;;;;;;;12.93;6.00;;;;;;;9.54;100.00;94092.00;5030717;28;20077;-59
2023/05/25 04:37:35;;;;;;;11.70;5.93;;;;;;;9.58;100.00;94103.72;5031380;28;20047;-62
2023/05/25 04:40:07;;;;;;;11.77;5.65;;;;;;;9.61;100.00;94086.44;5031972;28;20509;-62
2023/05/25 04:42:34;;;;;;;14.65;5.50;;;;;;;9.67;100.00;94097.75;5051200;28;20072;-62
2023/05/25 04:45:01;;;;;;;15.05;6.03;;;;;;;9.51;100.00;94099.06;5046111;28;20045;-60
2023/05/25 04:47:28;;;;;;;14.02;6.30;;;;;;;8.71;100.00;94097.25;5071225;28;20033;-59
2023/05/25 04:49:54;;;;;;;12.77;5.50;;;;;;;8.50;100.00;94103.59;5032042;28;20045;-60
2023/05/25 04:52:21;;;;;;;11.60;5.10;;;;;;;9.02;100.00;94102.94;5044891;28;20060;-59
2023/05/25 04:54:48;;;;;;;14.45;5.95;;;;;;;8.09;100.00;94110.38;5062904;28;20033;-59
2023/05/25 04:57:15;;;;;;;12.00;5.07;;;;;;;8.65;100.00;94104.31;5039567;28;20040;-60
2023/05/25 04:59:41;;;;;;;13.07;5.60;;;;;;;8.77;100.00;94099.19;5044697;28;20085;-60
2023/05/25 05:02:08;;;;;;;15.77;4.97;;;;;;;8.68;100.00;94117.22;5034925;28;20041;-61
2023/05/25 05:04:36;;;;;;;13.43;5.47;;;;;;;9.14;100.00;94119.69;5046840;28;20052;-58
2023/05/25 05:07:03;;;;;;;12.98;4.85;;;;;;;9.39;100.00;94111.28;5032600;28;20543;-58
2023/05/25 05:09:29;;;;;;;15.80;5.35;;;;;;;9.43;100.00;94113.22;5058406;28;20032;-58
2023/05/25 05:11:56;;;;;;;15.10;5.78;;;;;;;8.59;100.00;94123.09;5057659;28;20075;-62
2023/05/25 05:14:23;;;;;;;15.57;5.90;;;;;;;9.05;100.00;94113.09;5030212;28;20499;-58
2023/05/25 05:16:50;;;;;;;12.88;5.68;;;;;;;8.34;100.00;94113.00;5057544;28;20043;-58
2023/05/25 05:19:17;;;;;;;11.02;5.85;;;;;;;8.18;100.00;94112.69;5058772;28;20044;-58
2023/05/25 05:21:43;;;;;;;15.52;5.13;;;;;;;8.94;100.00;94107.69;5061045;28;20032;-58
2023/05/25 05:24:10;;;;;;;12.00;5.28;;;;;;;9.19;100.00;94118.47;5059730;28;20067;-62
2023/05/25 05:26:40;;;;;;;9.77;5.30;;;;;;;9.97;100.00;94119.00;5057659;28;20043;-59
2023/05/25 05:29:25;;;;;;;12.23;5.60;;;;;;;11.24;100.00;94116.34;5059456;28;20049;-62
2023/05/25 05:31:53;;;;;;;10.38;5.50;;;;;;;14.61;85.38;94108.56;5054869;28;20059;-60
2023/05/25 05:34:20;;;;;;;11.82;6.22;;;;;;;15.51;75.47;94099.22;5048750;28;20115;-58
2023/05/25 05:36:47;;;;;;;12.20;6.00;;;;;;;13.93;84.71;94109.13;5049737;28;20044;-60
2023/05/25 05:39:24;;;;;;;12.00;5.67;;;;;;;13.43;86.15;94112.31;5033725;28;20120;-57
2023/05/25 05:41:50;;;;;;;12.23;6.07;;;;;;;13.93;85.58;94117.41;4997503;28;1107289;-56
2023/05/25 05:44:19;;;;;;;11.48;6.32;;;;;;;16.54;73.92;94110.06;5047458;28;20365;-58
2023/05/25 05:46:46;;;;;;;11.48;6.78;;;;;;;18.33;66.62;94106.03;5060580;28;20078;-57
2023/05/25 05:49:13;;;;;;;13.80;7.60;;;;;;;19.01;63.42;94102.31;5052688;28;20037;-57
2023/05/25 05:51:40;;;;;;;15.00;7.77;;;;;;;20.05;59.85;94080.03;5049159;28;20037;-60
2023/05/25 05:54:07;;;;;;;12.13;7.68;;;;;;;21.32;54.90;94090.59;5039219;28;20393;-58
2023/05/25 05:56:34;;;;;;;13.80;8.23;;;;;;;21.31;52.70;94088.31;5044599;28;20036;-62
2023/05/25 05:59:01;;;;;;;14.27;7.47;;;;;;;21.61;52.04;94088.28;5030981;28;20350;-57
2023/05/25 06:01:27;;;;;;;11.73;7.60;;;;;;;22.52;49.66;94088.34;5049660;28;20037;-57
2023/05/25 06:03:54;;;;;;;12.63;8.33;;;;;;;20.74;52.17;94090.09;5048884;28;20152;-62
2023/05/25 06:06:21;;;;;;;13.98;7.68;;;;;;;19.04;56.51;94103.44;5034772;28;20048;-58
2023/05/25 06:08:48;;;;;;;11.73;7.32;;;;;;;22.65;49.67;94090.78;5061402;28;20085;-61
2023/05/25 06:11:15;;;;;;;14.23;7.70;;;;;;;21.49;51.00;94096.50;5044714;28;20041;-57
2023/05/25 06:13:42;;;;;;;10.98;7.15;;;;;;;20.06;54.37;94098.25;5021597;28;20048;-57
2023/05/25 06:16:11;;;;;;;12.27;7.70;;;;;;;17.67;63.53;94106.31;5032798;28;20037;-57
2023/05/25 06:18:38;;;;;;;14.32;7.80;;;;;;;17.27;71.54;94107.06;5043016;28;20420;-57
2023/05/25 06:21:05;;;;;;;14.07;8.10;;;;;;;17.39;69.85;94110.97;5062013;28;20067;-57
2023/05/25 06:23:32;;;;;;;13.13;8.50;;;;;;;15.33;80.41;94121.91;5031628;28;20836;-60
2023/05/25 06:26:05;;;;;;;13.55;8.25;;;;;;;15.38;84.18;94121.34;5062861;28;20048;-58
2023/05/25 06:28:32;;;;;;;14.87;9.57;;;;;;;14.33;89.67;94130.97;5033923;28;20482;-56
2023/05/25 06:30:59;;;;;;;14.52;9.32;;;;;;;13.75;93.94;94130.84;5042439;28;20051;-57
2023/05/25 06:33:26;;;;;;;15.65;8.52;;;;;;;14.28;97.73;94125.19;5037445;28;20207;-64
2023/05/25 06:35:55;;;;;;;14.68;8.10;;;;;;;14.80;94.14;94126.22;5055285;28;20033;-60
2023/05/25 06:38:23;;;;;;;14.25;8.05;;;;;;;15.09;92.21;94115.91;5045947;28;20045;-62
2023/05/25 06:40:50;;;;;;;17.43;9.50;;;;;;;14.41;96.52;94122.50;5029613;28;20038;-60
2023/05/25 06:43:17;;;;;;;13.70;8.93;;;;;;;14.93;94.02;94138.84;5039814;28;20104;-60
2023/05/25 06:45:44;;;;;;;15.52;10.30;;;;;;;14.42;96.13;94119.31;5038105;28;20045;-59
2023/05/25 06:48:11;;;;;;;17.45;10.32;;;;;;;14.16;99.73;94141.25;5051061;28;20041;-59
2023/05/25 06:50:38;;;;;;;18.27;11.35;;;;;;;13.49;100.00;94133.41;5054031;28;20040;-59
2023/05/25 06:53:05;;;;;;;15.83;9.77;;;;;;;14.17;100.00;94136.53;5042241;28;20172;-63
2023/05/25 06:55:32;;;;;;;18.60;11.30;;;;;;;13.15;100.00;94142.03;5054143;28;20045;-59
2023/05/25 06:57:59;;;;;;;16.35;10.48;;;;;;;13.79;100.00;94139.81;5050996;28;20045;-59
2023/05/25 07:00:25;;;;;;;17.75;11.00;;;;;;;13.39;100.00;94139.97;5049502;28;20049;-59
2023/05/25 07:02:52;;;;;;;16.15;10.30;;;;;;;13.72;100.00;94129.75;5054325;28;20464;-59
2023/05/25 07:05:19;;;;;;;18.97;10.63;;;;;;;13.18;100.00;94155.75;5051542;28;20040;-65
2023/05/25 07:07:46;;;;;;;18.85;10.90;;;;;;;13.92;100.00;94143.47;5052261;28;20430;-59
2023/05/25 07:10:13;;;;;;;19.63;11.07;;;;;;;13.13;100.00;94153.47;5039769;28;20033;-59
2023/05/25 07:12:39;;;;;;;17.23;10.18;;;;;;;12.68;100.00;94147.72;5056066;28;20045;-64
2023/05/25 07:15:07;;;;;;;17.33;9.57;;;;;;;13.10;100.00;94148.03;5059500;28;20044;-56
2023/05/25 07:17:35;;;;;;;17.13;9.90;;;;;;;13.10;100.00;94154.34;5037104;28;20067;-59
2023/05/25 07:20:03;;;;;;;17.15;10.45;;;;;;;12.72;100.00;94160.22;5030839;28;20474;-59
2023/05/25 07:22:30;;;;;;;17.58;10.30;;;;;;;13.05;100.00;94152.06;5048412;28;20044;-59
2023/05/25 07:24:57;;;;;;;18.55;10.60;;;;;;;12.99;100.00;94165.56;5048904;28;20063;-61
2023/05/25 07:27:24;;;;;;;16.48;9.52;;;;;;;13.51;100.00;94157.81;5048319;28;20033;-59
2023/05/25 07:29:51;;;;;;;16.33;9.90;;;;;;;14.06;100.00;94166.38;5051065;28;20059;-62
2023/05/25 07:32:17;;;;;;;18.52;10.98;;;;;;;12.38;100.00;94166.75;5048937;28;20049;-59
2023/05/25 07:34:44;;;;;;;17.48;10.15;;;;;;;12.74;100.00;94174.34;5043040;28;20048;-59
2023/05/25 07:37:11;;;;;;;18.23;10.13;;;;;;;11.99;100.00;94172.91;5053846;28;20067;-64
2023/05/25 07:39:39;;;;;;;19.80;10.35;;;;;;;12.75;100.00;94181.38;5036148;28;20042;-61
2023/05/25 07:42:06;;;;;;;17.23;10.10;;;;;;;13.02;100.00;94174.97;5028597;28;20091;-60
2023/05/25 07:44:33;;;;;;;16.23;9.75;;;;;;;12.78;100.00;94180.56;5051205;28;20749;-60
2023/05/25 07:47:00;;;;;;;17.40;11.13;;;;;;;12.49;100.00;94185.81;5055666;28;20105;-64
2023/05/25 07:49:27;;;;;;;17.25;10.15;;;;;;;13.33;100.00;94180.25;5047811;28;20049;-59
2023/05/25 07:51:53;;;;;;;16.92;10.35;;;;;;;12.88;100.00;94189.03;5044727;28;20043;-59
2023/05/25 07:54:20;;;;;;;17.77;9.30;;;;;;;13.13;100.00;94194.81;5007885;28;20088;-63
2023/05/25 07:56:47;;;;;;;15.35;9.07;;;;;;;12.62;100.00;94198.97;5029630;28;20052;-60
2023/05/25 07:59:13;;;;;;;13.95;8.88;;;;;;;12.92;100.00;94196.03;5048103;28;20045;-59
2023/05/25 08:01:40;;;;;;;15.57;9.13;;;;;;;13.15;100.00;94199.91;5046138;28;20048;-59
2023/05/25 08:04:07;;;;;;;15.55;8.73;;;;;;;12.58;100.00;94201.78;5039179;28;20036;-56
2023/05/25 08:06:34;;;;;;;16.90;9.97;;;;;;;12.07;100.00;94203.84;5058326;28;20420;-59
2023/05/25 08:09:03;;;;;;;14.50;8.80;;;;;;;12.18;100.00;94196.19;5030778;28;20045;-60
2023/05/25 08:11:30;;;;;;;14.27;7.85;;;;;;;13.28;100.00;94194.50;5047916;28;20590;-63
2023/05/25 08:13:58;;;;;;;16.15;10.00;;;;;;;12.99;100.00;94203.38;5064250;28;20050;-60
2023/05/25 08:16:25;;;;;;;13.00;8.05;;;;;;;13.64;100.00;94204.78;5039827;28;20029;-60
2023/05/25 08:18:52;;;;;;;13.37;8.20;;;;;;;13.16;100.00;94201.47;5048820;28;20045;-60
2023/05/25 08:21:19;;;;;;;14.82;8.10;;;;;;;13.97;100.00;94200.09;5046043;28;20044;-59
2023/05/25 08:23:46;;;;;;;12.20;7.05;;;;;;;14.13;100.00;94204.84;5060178;28;20046;-59
2023/05/25 08:26:12;;;;;;;13.48;8.20;;;;;;;14.10;100.00;94202.94;5047360;28;20109;-59
2023/05/25 08:29:00;;;;;;;12.32;7.57;;;;;;;14.15;100.00;94205.97;5035658;28;20113;-61
2023/05/25 08:31:27;;;;;;;12.50;7.57;;;;;;;14.07;100.00;94199.06;5063175;28;20076;-59
2023/05/25 08:33:54;;;;;;;11.35;7.47;;;;;;;14.35;100.00;94211.38;5060447;28;20032;-62
2023/05/25 08:36:21;;;;;;;12.50;8.10;;;;;;;13.95;100.00;94214.31;5045274;28;20033;-60
2023/05/25 08:38:47;;;;;;;11.48;7.53;;;;;;;14.60;100.00;94220.28;5037537;28;20040;-59
2023/05/25 08:41:15;;;;;;;12.13;6.47;;;;;;;14.80;100.00;94220.16;5067301;28;20052;-59
2023/05/25 08:43:42;;;;;;;14.30;7.50;;;;;;;14.22;100.00;94215.28;5040575;28;20080;-59
2023/05/25 08:46:09;;;;;;;12.75;8.05;;;;;;;13.31;100.00;94233.06;5051809;28;20051;-63
2023/05/25 08:48:37;;;;;;;13.40;7.97;;;;;;;13.34;100.00;94229.47;5063307;28;20049;-60
2023/05/25 08:51:12;;;;;;;12.40;7.32;;;;;;;14.42;100.00;94228.97;5052381;28;20089;-59
2023/05/25 08:53:40;;;;;;;12.73;7.30;;;;;;;13.51;100.00;94233.03;5055044;28;20055;-59
2023/05/25 08:56:19;;;;;;;12.23;7.60;;;;;;;14.29;100.00;94234.44;5050885;28;20055;-56
2023/05/25 08:59:01;;;;;;;12.70;7.35;;;;;;;14.12;100.00;94233.63;5041404;28;20051;-59
2023/05/25 09:01:37;;;;;;;12.05;7.32;;;;;;;15.05;100.00;94242.38;5035129;28;20621;-59
2023/05/25 09:04:05;;;;;;;13.18;7.80;;;;;;;14.46;100.00;94244.25;5064884;28;20067;-61
2023/05/25 09:06:35;;;;;;;12.85;7.40;;;;;;;13.93;100.00;94238.03;5038999;28;20787;-60
2023/05/25 09:09:05;;;;;;;12.97;8.40;;;;;;;14.33;100.00;94243.41;5049795;28;20060;-59
2023/05/25 09:11:33;;;;;;;13.23;7.82;;;;;;;14.51;100.00;94237.44;5053095;28;20351;-63
2023/05/25 09:14:10;;;;;;;13.70;8.38;;;;;;;14.63;100.00;94230.44;5055295;28;20038;-60
2023/05/25 09:16:37;;;;;;;10.60;7.10;;;;;;;15.20;100.00;94234.44;5050379;28;20679;-59
2023/05/25 09:19:03;;;;;;;12.18;7.50;;;;;;;15.16;100.00;94245.59;5045949;28;20045;-62
2023/05/25 09:21:30;;;;;;;12.10;8.13;;;;;;;14.84;100.00;94243.69;5050527;28;20056;-59
2023/05/25 09:23:59;;;;;;;11.93;7.38;;;;;;;14.68;100.00;94263.06;5046679;28;20041;-59
2023/05/25 09:26:26;;;;;;;12.52;7.57;;;;;;;15.26;100.00;94262.34;5022017;28;20043;-56
2023/05/25 09:28:53;;;;;;;14.05;8.48;;;;;;;14.97;100.00;94271.41;5047562;28;20047;-57
2023/05/25 09:31:22;;;;;;;13.75;8.20;;;;;;;15.27;100.00;94267.44;5049995;28;20057;-63
2023/05/25 09:33:50;;;;;;;13.30;7.90;;;;;;;15.58;100.00;94270.50;5050669;28;20500;-58
2023/05/25 09:36:19;;;;;;;14.18;8.80;;;;;;;14.94;100.00;94275.81;5040194;28;20049;-61
2023/05/25 09:38:46;;;;;;;13.20;8.63;;;;;;;14.42;100.00;94279.44;5030418;28;20470;-57
2023/05/25 09:41:13;;;;;;;15.93;8.77;;;;;;;14.91;100.00;94286.94;5035566;28;20107;-61
2023/05/25 09:43:40;;;;;;;12.82;7.63;;;;;;;15.10;100.00;94283.28;5050294;28;20075;-59
2023/05/25 09:46:20;;;;;;;12.70;7.80;;;;;;;15.61;100.00;94276.38;5047079;28;20056;-61
2023/05/25 09:48:47;;;;;;;13.02;7.50;;;;;;;15.90;99.96;94284.66;5044212;28;20037;-57
2023/05/25 09:51:14;;;;;;;12.00;8.13;;;;;;;16.56;95.38;94280.19;5039025;28;20130;-59
2023/05/25 09:53:41;;;;;;;13.95;8.77;;;;;;;15.72;99.44;94283.16;5045713;28;20115;-57
2023/05/25 09:56:10;;;;;;;11.07;7.75;;;;;;;15.97;97.44;94287.19;5033933;28;20080;-55
2023/05/25 09:58:37;;;;;;;13.40;7.70;;;;;;;15.48;100.00;94290.94;5035254;28;20448;-64
2023/05/25 10:01:04;;;;;;;13.13;8.13;;;;;;;17.01;92.89;94292.22;5053294;28;20044;-59
2023/05/25 10:03:31;;;;;;;14.13;8.38;;;;;;;16.77;93.23;94286.25;5042026;28;20057;-60
2023/05/25 10:06:00;;;;;;;12.65;7.72;;;;;;;18.43;84.80;94292.22;5029665;28;20163;-60
2023/05/25 10:08:27;;;;;;;10.52;7.18;;;;;;;20.31;75.17;94287.31;5038086;28;20108;-63
2023/05/25 10:10:54;;;;;;;11.10;7.63;;;;;;;20.96;69.15;94284.25;5048557;28;20105;-60
2023/05/25 10:13:24;;;;;;;10.95;7.50;;;;;;;18.44;78.37;94288.97;5053677;28;20037;-57
2023/05/25 10:15:53;;;;;;;12.10;7.30;;;;;;;19.69;73.12;94299.66;5056122;28;20090;-59
2023/05/25 10:18:26;;;;;;;9.80;7.20;;;;;;;19.99;71.75;94288.06;5047667;28;20040;-63
2023/05/25 10:21:01;;;;;;;10.23;6.90;;;;;;;22.49;63.86;94288.66;5044886;28;20052;-64
2023/05/25 10:23:39;;;;;;;10.43;7.90;;;;;;;20.75;64.79;94284.06;5061768;28;20049;-57
2023/05/25 10:26:07;;;;;;;10.77;7.70;;;;;;;20.86;67.87;94285.56;5035333;28;20053;-58
2023/05/25 10:28:36;;;;;;;11.18;7.05;;;;;;;21.78;63.89;94287.69;5028264;28;20186;-58
2023/05/25 10:31:04;;;;;;;10.82;8.20;;;;;;;19.10;71.74;94283.13;5054295;28;20048;-57
2023/05/25 10:33:32;;;;;;;12.02;8.23;;;;;;;19.69;72.88;94284.97;5036319;28;20045;-58
2023/05/25 10:36:02;;;;;;;13.47;9.50;;;;;;;17.38;82.25;94284.19;5050558;28;20133;-62
2023/05/25 10:38:36;;;;;;;12.02;9.07;;;;;;;18.17;81.02;94289.66;5044086;28;20874;-57
2023/05/25 10:41:04;;;;;;;13.57;9.10;;;;;;;18.33;79.86;94288.63;5045333;28;20367;-57
2023/05/25 10:43:31;;;;;;;14.60;9.65;;;;;;;18.75;76.73;94277.00;5022785;28;20041;-58
2023/05/25 10:45:58;;;;;;;12.88;9.45;;;;;;;18.09;77.35;94293.91;5033995;28;20053;-61
2023/05/25 10:48:35;;;;;;;12.30;8.80;;;;;;;18.84;78.71;94282.63;5056211;28;20049;-57
2023/05/25 10:51:03;;;;;;;11.88;8.50;;;;;;;19.55;75.21;94280.81;5042643;28;20051;-57
2023/05/25 10:53:30;;;;;;;14.23;9.85;;;;;;;18.28;80.32;94287.22;5028679;28;20045;-58
2023/05/25 10:56:04;;;;;;;12.88;9.20;;;;;;;18.55;77.87;94299.66;5045439;28;20037;-57
2023/05/25 10:58:32;;;;;;;12.43;9.30;;;;;;;18.98;77.58;94286.06;5047762;28;20059;-58
2023/05/25 11:01:06;;;;;;;11.53;8.47;;;;;;;18.63;79.32;94291.81;5029419;28;20382;-58
2023/05/25 11:03:51;;;;;;;13.88;8.90;;;;;;;18.92;79.03;94292.22;5040261;28;20140;-57
2023/05/25 11:06:45;;;;;;;12.90;9.00;;;;;;;19.81;74.97;94286.84;5054543;28;20044;-58
2023/05/25 11:09:25;;;;;;;13.18;9.50;;;;;;;19.92;73.27;94275.22;5015148;28;20043;-57
2023/05/25 11:11:54;;;;;;;12.07;9.40;;;;;;;18.54;78.48;94289.78;5036562;28;20047;-58
2023/05/25 11:14:31;;;;;;;15.00;9.70;;;;;;;18.82;78.78;94279.53;5041207;28;20036;-58
2023/05/25 11:17:13;;;;;;;13.65;9.60;;;;;;;18.66;79.18;94286.13;5036631;28;20121;-58
2023/05/25 11:19:42;;;;;;;13.00;9.02;;;;;;;19.19;77.47;94293.50;5056092;28;21011;-58
2023/05/25 11:22:18;;;;;;;14.85;9.27;;;;;;;18.61;79.54;94295.03;5045628;28;20033;-63
2023/05/25 11:24:48;;;;;;;13.07;9.45;;;;;;;18.69;78.61;94298.31;5042550;28;20070;-57
2023/05/25 11:27:22;;;;;;;13.83;9.30;;;;;;;18.58;79.44;94298.00;5048134;28;20067;-58
2023/05/25 11:29:50;;;;;;;13.98;10.00;;;;;;;17.90;85.16;94293.06;5062255;28;20040;-58
2023/05/25 11:32:17;;;;;;;13.90;10.50;;;;;;;17.30;87.44;94300.31;5048126;28;20059;-62